createdAt,value
2018-06-19T00:00:43.324Z,96081.00
2018-06-19T00:03:13.846Z,96076.00
2018-06-19T00:05:43.370Z,96078.00
2018-06-19T00:08:12.593Z,96081.00
2018-06-19T00:10:41.960Z,96085.00
2018-06-19T00:13:11.307Z,96083.00
2018-06-19T00:15:41.267Z,96080.00
2018-06-19T00:18:17.795Z,96077.00
2018-06-19T00:20:47.094Z,96075.00
2018-06-19T00:23:16.334Z,96072.00
2018-06-19T00:25:45.499Z,96070.00
2018-06-19T00:28:14.904Z,96080.00
2018-06-19T00:30:44.215Z,96073.00
2018-06-19T00:33:13.550Z,96069.00
2018-06-19T00:35:42.974Z,96075.00
2018-06-19T00:38:12.662Z,96082.00
2018-06-19T00:40:42.175Z,96076.00
2018-06-19T00:43:11.828Z,96090.00
2018-06-19T00:45:41.507Z,96078.00
2018-06-19T00:48:11.002Z,96080.00
2018-06-19T00:50:40.313Z,96074.00
2018-06-19T00:53:09.716Z,96072.00
2018-06-19T00:55:39.063Z,96071.00
2018-06-19T00:58:08.225Z,96066.00
2018-06-19T01:00:37.354Z,96079.00
2018-06-19T01:03:06.475Z,96078.00
2018-06-19T01:05:35.698Z,96082.00
2018-06-19T01:08:04.822Z,96071.00
2018-06-19T01:10:34.032Z,96077.00
2018-06-19T01:13:03.273Z,96073.00
2018-06-19T01:15:33.445Z,96079.00
2018-06-19T01:18:02.714Z,96079.00
2018-06-19T01:20:32.017Z,96071.00
2018-06-19T01:23:01.297Z,96078.00
2018-06-19T01:25:30.576Z,96076.00
2018-06-19T01:27:59.782Z,96071.00
2018-06-19T01:30:29.004Z,96083.00
2018-06-19T01:32:58.307Z,96076.00
2018-06-19T01:35:27.522Z,96074.00
2018-06-19T01:37:56.919Z,96074.00
2018-06-19T01:40:26.113Z,96078.00
2018-06-19T01:42:55.356Z,96081.00
2018-06-19T01:45:24.685Z,96083.00
2018-06-19T01:47:53.965Z,96075.00
2018-06-19T01:50:23.310Z,96081.00
2018-06-19T01:52:52.455Z,96092.00
2018-06-19T01:55:21.692Z,96089.00
2018-06-19T01:57:50.634Z,96083.00
2018-06-19T02:00:19.766Z,96080.00
2018-06-19T02:02:48.702Z,96097.00
2018-06-19T02:05:17.880Z,96090.00
2018-06-19T02:07:47.254Z,96097.00
2018-06-19T02:10:16.461Z,96091.00
2018-06-19T02:12:45.481Z,96102.00
2018-06-19T02:15:14.843Z,96095.00
2018-06-19T02:17:44.054Z,96098.00
2018-06-19T02:20:12.953Z,96103.00
2018-06-19T02:22:42.183Z,96108.00
2018-06-19T02:25:11.342Z,96098.00
2018-06-19T02:27:40.530Z,96099.00
2018-06-19T02:30:09.715Z,96097.00
2018-06-19T02:32:38.878Z,96099.00
2018-06-19T02:35:08.015Z,96104.00
2018-06-19T02:37:37.361Z,96109.00
2018-06-19T02:40:06.581Z,96092.00
2018-06-19T02:42:35.964Z,96104.00
2018-06-19T02:45:05.764Z,96105.00
2018-06-19T02:47:35.131Z,96102.00
2018-06-19T02:50:04.253Z,96100.00
2018-06-19T02:52:33.645Z,96108.00
2018-06-19T02:55:02.927Z,96115.00
2018-06-19T02:57:32.148Z,96117.00
2018-06-19T03:00:01.304Z,96125.00
2018-06-19T03:02:30.536Z,96129.00
2018-06-19T03:04:59.428Z,96126.00
2018-06-19T03:07:28.679Z,96125.00
2018-06-19T03:09:57.811Z,96125.00
2018-06-19T03:12:26.854Z,96124.00
2018-06-19T03:14:56.154Z,96130.00
2018-06-19T03:17:25.775Z,96126.00
2018-06-19T03:19:55.232Z,96130.00
2018-06-19T03:22:24.465Z,96140.00
2018-06-19T03:24:53.568Z,96141.00
2018-06-19T03:27:22.734Z,96135.00
2018-06-19T03:29:51.952Z,96146.00
2018-06-19T03:32:21.139Z,96143.00
2018-06-19T03:34:50.382Z,96144.00
2018-06-19T03:37:19.685Z,96144.00
2018-06-19T03:39:49.105Z,96150.00
2018-06-19T03:42:18.043Z,96159.00
2018-06-19T03:44:47.168Z,96164.00
2018-06-19T03:47:16.430Z,96160.00
2018-06-19T03:49:45.676Z,96162.00
2018-06-19T03:52:14.925Z,96161.00
2018-06-19T03:54:44.043Z,96162.00
2018-06-19T03:57:13.183Z,96164.00
2018-06-19T03:59:42.366Z,96167.00
2018-06-19T04:02:11.306Z,96161.00
2018-06-19T04:04:40.524Z,96169.00
2018-06-19T04:07:09.859Z,96161.00
2018-06-19T04:09:39.167Z,96166.00
2018-06-19T04:12:08.305Z,96173.00
2018-06-19T04:14:37.547Z,96185.00
2018-06-19T04:17:06.485Z,96168.00
2018-06-19T04:19:35.575Z,96174.00
2018-06-19T04:22:04.743Z,96173.00
2018-06-19T04:24:33.865Z,96177.00
2018-06-19T04:27:02.988Z,96186.00
2018-06-19T04:29:32.182Z,96188.00
2018-06-19T04:32:01.300Z,96187.00
2018-06-19T04:34:30.508Z,96188.00
2018-06-19T04:36:59.662Z,96193.00
2018-06-19T04:39:28.836Z,96193.00
2018-06-19T04:41:57.983Z,96186.00
2018-06-19T04:44:27.090Z,96188.00
2018-06-19T04:46:56.166Z,96176.00
2018-06-19T04:49:25.301Z,96181.00
2018-06-19T04:51:54.328Z,96193.00
2018-06-19T04:54:23.535Z,96190.00
2018-06-19T04:56:52.692Z,96186.00
2018-06-19T04:59:21.892Z,96186.00
2018-06-19T05:01:51.170Z,96186.00
2018-06-19T05:04:20.485Z,96180.00
2018-06-19T05:06:49.594Z,96185.00
2018-06-19T05:09:18.816Z,96186.00
2018-06-19T05:11:47.921Z,96186.00
2018-06-19T05:14:17.215Z,96187.00
2018-06-19T05:16:46.345Z,96198.00
2018-06-19T05:19:15.510Z,96196.00
2018-06-19T05:21:44.651Z,96200.00
2018-06-19T05:24:13.807Z,96191.00
2018-06-19T05:26:42.944Z,96200.00
2018-06-19T05:29:12.102Z,96196.00
2018-06-19T05:31:41.373Z,96193.00
2018-06-19T05:34:10.503Z,96203.00
2018-06-19T05:36:39.647Z,96207.00
2018-06-19T05:39:10.662Z,96210.00
2018-06-19T05:41:39.990Z,96210.00
2018-06-19T05:44:09.456Z,96212.00
2018-06-19T05:46:38.742Z,96215.00
2018-06-19T05:49:07.904Z,96213.00
2018-06-19T05:51:37.098Z,96221.00
2018-06-19T05:54:06.218Z,96216.00
2018-06-19T05:56:35.390Z,96214.00
2018-06-19T05:59:04.522Z,96215.00
2018-06-19T06:01:34.075Z,96219.00
2018-06-19T06:04:03.326Z,96228.00
2018-06-19T06:06:32.438Z,96223.00
2018-06-19T06:09:01.648Z,96219.00
2018-06-19T06:11:30.802Z,96221.00
2018-06-19T06:13:59.950Z,96227.00
2018-06-19T06:16:29.143Z,96233.00
2018-06-19T06:18:58.266Z,96230.00
2018-06-19T06:21:27.407Z,96230.00
2018-06-19T06:23:56.629Z,96239.00
2018-06-19T06:26:25.497Z,96239.00
2018-06-19T06:28:54.681Z,96235.00
2018-06-19T06:31:23.888Z,96243.00
2018-06-19T06:33:53.298Z,96233.00
2018-06-19T06:36:22.566Z,96227.00
2018-06-19T06:38:51.677Z,96240.00
2018-06-19T06:41:20.782Z,96239.00
2018-06-19T06:43:49.701Z,96236.00
2018-06-19T06:46:18.885Z,96242.00
2018-06-19T06:48:48.065Z,96244.00
2018-06-19T06:51:17.203Z,96246.00
2018-06-19T06:53:46.249Z,96241.00
2018-06-19T06:56:15.462Z,96242.00
2018-06-19T06:58:44.628Z,96247.00
2018-06-19T07:01:13.764Z,96250.00
2018-06-19T07:03:42.877Z,96248.00
2018-06-19T07:06:12.125Z,96253.00
2018-06-19T07:08:41.363Z,96254.00
2018-06-19T07:11:10.237Z,96251.00
2018-06-19T07:13:39.358Z,96265.00
2018-06-19T07:16:08.518Z,96259.00
2018-06-19T07:18:37.609Z,96264.00
2018-06-19T07:21:06.761Z,96264.00
2018-06-19T07:23:35.885Z,96263.00
2018-06-19T07:26:05.002Z,96262.00
2018-06-19T07:28:34.058Z,96260.00
2018-06-19T07:31:03.252Z,96257.00
2018-06-19T07:33:32.302Z,96260.00
2018-06-19T07:36:01.401Z,96260.00
2018-06-19T07:38:30.535Z,96252.00
2018-06-19T07:40:59.698Z,96254.00
2018-06-19T07:43:28.573Z,96252.00
2018-06-19T07:45:57.742Z,96257.00
2018-06-19T07:48:26.890Z,96262.00
2018-06-19T07:50:56.102Z,96248.00
2018-06-19T07:53:25.154Z,96250.00
2018-06-19T07:55:54.362Z,96245.00
2018-06-19T07:58:23.228Z,96241.00
2018-06-19T08:00:52.372Z,96245.00
2018-06-19T08:03:21.549Z,96251.00
2018-06-19T08:05:50.778Z,96248.00
2018-06-19T08:08:19.929Z,96256.00
2018-06-19T08:10:49.026Z,96248.00
2018-06-19T08:13:18.121Z,96257.00
2018-06-19T08:15:47.299Z,96246.00
2018-06-19T08:18:16.514Z,96244.00
2018-06-19T08:20:45.669Z,96238.00
2018-06-19T08:23:14.822Z,96247.00
2018-06-19T08:25:43.970Z,96241.00
2018-06-19T08:28:13.162Z,96246.00
2018-06-19T08:30:42.362Z,96242.00
2018-06-19T08:33:11.532Z,96244.00
2018-06-19T08:35:40.710Z,96247.00
2018-06-19T08:38:09.876Z,96249.00
2018-06-19T08:40:38.918Z,96248.00
2018-06-19T08:43:08.049Z,96246.00
2018-06-19T08:45:37.145Z,96245.00
2018-06-19T08:48:06.300Z,96241.00
2018-06-19T08:50:35.350Z,96239.00
2018-06-19T08:53:04.524Z,96246.00
2018-06-19T08:55:33.661Z,96240.00
2018-06-19T08:58:02.946Z,96237.00
2018-06-19T09:00:32.014Z,96234.00
2018-06-19T09:03:01.122Z,96233.00
2018-06-19T09:05:30.634Z,96238.00
2018-06-19T09:07:59.678Z,96237.00
2018-06-19T09:10:28.794Z,96230.00
2018-06-19T09:12:57.922Z,96237.00
2018-06-19T09:15:27.169Z,96230.00
2018-06-19T09:17:56.358Z,96227.00
2018-06-19T09:20:25.547Z,96227.00
2018-06-19T09:22:54.534Z,96232.00
2018-06-19T09:25:23.657Z,96234.00
2018-06-19T09:27:52.826Z,96223.00
2018-06-19T09:30:21.971Z,96230.00
2018-06-19T09:32:51.122Z,96231.00
2018-06-19T09:35:20.283Z,96228.00
2018-06-19T09:37:49.429Z,96229.00
2018-06-19T09:40:18.624Z,96219.00
2018-06-19T09:42:47.720Z,96215.00
2018-06-19T09:45:16.521Z,96210.00
2018-06-19T09:47:45.718Z,96216.00
2018-06-19T09:50:14.804Z,96216.00
2018-06-19T09:52:43.916Z,96219.00
2018-06-19T09:55:13.014Z,96221.00
2018-06-19T09:57:42.095Z,96223.00
2018-06-19T10:00:11.266Z,96219.00
2018-06-19T10:02:40.050Z,96214.00
2018-06-19T10:05:09.195Z,96219.00
2018-06-19T10:07:38.383Z,96218.00
2018-06-19T10:10:07.546Z,96215.00
2018-06-19T10:12:36.638Z,96214.00
2018-06-19T10:15:05.859Z,96208.00
2018-06-19T10:17:34.971Z,96210.00
2018-06-19T10:20:04.066Z,96206.00
2018-06-19T10:22:33.166Z,96213.00
2018-06-19T10:25:02.355Z,96208.00
2018-06-19T10:27:31.518Z,96208.00
2018-06-19T10:30:00.385Z,96198.00
2018-06-19T10:32:29.538Z,96209.00
2018-06-19T10:34:58.740Z,96205.00
2018-06-19T10:37:27.806Z,96204.00
2018-06-19T10:39:56.999Z,96198.00
2018-06-19T10:42:26.146Z,96204.00
2018-06-19T10:44:55.255Z,96205.00
2018-06-19T10:47:24.397Z,96196.00
2018-06-19T10:49:53.581Z,96194.00
2018-06-19T10:52:22.638Z,96201.00
2018-06-19T10:54:51.853Z,96201.00
2018-06-19T10:57:21.089Z,96199.00
2018-06-19T10:59:50.242Z,96196.00
2018-06-19T11:02:19.430Z,96194.00
2018-06-19T11:04:48.638Z,96206.00
2018-06-19T11:07:22.006Z,96199.00
2018-06-19T11:09:51.187Z,96196.00
2018-06-19T11:12:20.368Z,96192.00
2018-06-19T11:14:49.546Z,96207.00
2018-06-19T11:17:18.730Z,96193.00
2018-06-19T11:19:48.538Z,96201.00
2018-06-19T11:22:17.710Z,96205.00
2018-06-19T11:24:46.926Z,96207.00
2018-06-19T11:27:16.354Z,96206.00
2018-06-19T11:29:45.214Z,96199.00
2018-06-19T11:32:14.517Z,96207.00
2018-06-19T11:34:43.797Z,96203.00
2018-06-19T11:37:12.906Z,96205.00
2018-06-19T11:39:42.130Z,96202.00
2018-06-19T11:42:11.116Z,96200.00
2018-06-19T11:44:40.373Z,96211.00
2018-06-19T11:47:09.519Z,96217.00
2018-06-19T11:49:38.737Z,96213.00
2018-06-19T11:52:07.922Z,96200.00
2018-06-19T11:54:36.865Z,96203.00
2018-06-19T11:57:06.006Z,96209.00
2018-06-19T11:59:35.233Z,96205.00
2018-06-19T12:02:04.363Z,96199.00
2018-06-19T12:04:33.574Z,96207.00
2018-06-19T12:07:02.802Z,96206.00
2018-06-19T12:09:32.027Z,96214.00
2018-06-19T12:12:01.200Z,96209.00
2018-06-19T12:14:30.361Z,96205.00
2018-06-19T12:16:59.605Z,96203.00
2018-06-19T12:19:28.790Z,96188.00
2018-06-19T12:21:57.958Z,96186.00
2018-06-19T12:24:27.216Z,96188.00
2018-06-19T12:26:56.278Z,96181.00
2018-06-19T12:29:25.443Z,96173.00
2018-06-19T12:31:54.698Z,96175.00
2018-06-19T12:34:23.870Z,96190.00
2018-06-19T12:36:52.909Z,96184.00
2018-06-19T12:39:21.855Z,96185.00
2018-06-19T12:41:51.034Z,96183.00
2018-06-19T12:44:19.940Z,96176.00
2018-06-19T12:46:49.111Z,96181.00
2018-06-19T12:53:44.485Z,96166.00
2018-06-19T12:56:16.233Z,96170.00
2018-06-19T12:58:45.413Z,96164.00
2018-06-19T13:01:14.655Z,96171.00
2018-06-19T13:04:00.673Z,96172.00
2018-06-19T13:06:34.398Z,96158.00
2018-06-19T13:09:04.887Z,96158.00
2018-06-19T13:11:35.386Z,96156.00
2018-06-19T13:14:21.378Z,96153.00
2018-06-19T13:17:07.258Z,96145.00
2018-06-19T13:19:53.157Z,96154.00
2018-06-19T13:22:22.161Z,96147.00
2018-06-19T13:24:51.411Z,96148.00
2018-06-19T13:27:20.518Z,96155.00
2018-06-19T13:30:08.937Z,96149.00
2018-06-19T13:32:38.477Z,96151.00
2018-06-19T13:35:07.522Z,96150.00
2018-06-19T13:37:36.757Z,96155.00
2018-06-19T13:41:24.990Z,96156.00
2018-06-19T13:44:12.551Z,96147.00
2018-06-19T13:46:41.878Z,96143.00
2018-06-19T13:49:11.042Z,96150.00
2018-06-19T13:51:41.190Z,96145.00
2018-06-19T13:54:10.435Z,96149.00
2018-06-19T13:57:23.396Z,96140.00
2018-06-19T13:59:52.549Z,96137.00
2018-06-19T14:02:21.657Z,96149.00
2018-06-19T14:04:50.871Z,96136.00
2018-06-19T14:07:20.499Z,96141.00
2018-06-19T14:10:06.695Z,96139.00
2018-06-19T14:12:50.214Z,96127.00
2018-06-19T14:15:20.206Z,96132.00
2018-06-19T14:17:49.369Z,96135.00
2018-06-19T14:20:18.566Z,96121.00
2018-06-19T14:22:47.644Z,96128.00
2018-06-19T14:25:17.426Z,96123.00
2018-06-19T14:27:46.783Z,96128.00
2018-06-19T14:30:15.957Z,96116.00
2018-06-19T14:32:45.602Z,96118.00
2018-06-19T14:35:14.822Z,96113.00
2018-06-19T14:37:44.221Z,96118.00
2018-06-19T14:40:13.798Z,96118.00
2018-06-19T14:42:42.978Z,96109.00
2018-06-19T14:45:12.458Z,96108.00
2018-06-19T14:47:42.017Z,96116.00
2018-06-19T14:50:11.446Z,96110.00
2018-06-19T14:52:40.557Z,96104.00
2018-06-19T14:55:10.106Z,96110.00
2018-06-19T14:57:39.729Z,96113.00
2018-06-19T15:00:09.594Z,96106.00
2018-06-19T15:02:38.694Z,96104.00
2018-06-19T15:05:08.268Z,96096.00
2018-06-19T15:07:38.227Z,96094.00
2018-06-19T15:10:08.466Z,96090.00
2018-06-19T15:12:37.732Z,96092.00
2018-06-19T15:15:06.893Z,96100.00
2018-06-19T15:17:35.930Z,96088.00
2018-06-19T15:20:05.468Z,96093.00
2018-06-19T15:22:34.654Z,96092.00
2018-06-19T15:25:03.882Z,96103.00
2018-06-19T15:27:32.910Z,96096.00
2018-06-19T15:30:02.276Z,96097.00
2018-06-19T15:32:31.414Z,96093.00
2018-06-19T15:35:00.612Z,96103.00
2018-06-19T15:37:29.819Z,96097.00
2018-06-19T15:39:58.966Z,96087.00
2018-06-19T15:42:28.181Z,96082.00
2018-06-19T15:44:57.326Z,96092.00
2018-06-19T15:47:26.554Z,96095.00
2018-06-19T15:49:55.754Z,96089.00
2018-06-19T15:52:25.085Z,96087.00
2018-06-19T15:54:54.202Z,96091.00
2018-06-19T15:57:23.478Z,96091.00
2018-06-19T15:59:52.651Z,96092.00
2018-06-19T16:02:21.884Z,96089.00
2018-06-19T16:04:51.017Z,96090.00
2018-06-19T16:07:20.270Z,96083.00
2018-06-19T16:09:49.445Z,96085.00
2018-06-19T16:12:18.634Z,96089.00
2018-06-19T16:14:47.830Z,96089.00
2018-06-19T16:17:16.981Z,96087.00
2018-06-19T16:19:46.203Z,96086.00
2018-06-19T16:22:15.254Z,96086.00
2018-06-19T16:24:44.446Z,96092.00
2018-06-19T16:27:13.259Z,96094.00
2018-06-19T16:29:42.474Z,96097.00
2018-06-19T16:32:11.626Z,96093.00
2018-06-19T16:34:40.861Z,96084.00
2018-06-19T16:37:10.030Z,96083.00
2018-06-19T16:39:39.221Z,96084.00
2018-06-19T16:42:08.379Z,96091.00
2018-06-19T16:44:37.565Z,96079.00
2018-06-19T16:47:06.666Z,96077.00
2018-06-19T16:49:35.763Z,96080.00
2018-06-19T16:52:11.237Z,96084.00
2018-06-19T16:54:43.887Z,96078.00
2018-06-19T16:57:13.056Z,96080.00
2018-06-19T16:59:54.445Z,96086.00
2018-06-19T17:02:25.357Z,96087.00
2018-06-19T17:05:01.854Z,96077.00
2018-06-19T17:07:39.734Z,96079.00
2018-06-19T17:10:09.657Z,96085.00
2018-06-19T17:12:44.485Z,96081.00
2018-06-19T17:15:14.369Z,96077.00
2018-06-19T17:17:55.840Z,96076.00
2018-06-19T17:20:25.342Z,96075.00
2018-06-19T17:22:54.594Z,96085.00
2018-06-19T17:25:23.721Z,96082.00
2018-06-19T17:27:52.915Z,96084.00
2018-06-19T17:30:22.058Z,96084.00
2018-06-19T17:32:50.943Z,96087.00
2018-06-19T17:35:19.928Z,96084.00
2018-06-19T17:37:49.042Z,96085.00
2018-06-19T17:40:20.042Z,96080.00
2018-06-19T17:42:49.048Z,96079.00
2018-06-19T17:45:18.221Z,96081.00
2018-06-19T17:47:47.399Z,96082.00
2018-06-19T17:50:16.534Z,96086.00
2018-06-19T17:52:45.748Z,96074.00
2018-06-19T17:55:14.896Z,96082.00
2018-06-19T17:57:44.083Z,96085.00
2018-06-19T18:00:13.239Z,96083.00
2018-06-19T18:02:42.385Z,96083.00
2018-06-19T18:05:11.595Z,96078.00
2018-06-19T18:07:40.846Z,96078.00
2018-06-19T18:10:10.093Z,96074.00
2018-06-19T18:12:39.197Z,96072.00
2018-06-19T18:15:08.478Z,96076.00
2018-06-19T18:17:37.591Z,96079.00
2018-06-19T18:20:06.798Z,96077.00
2018-06-19T18:22:35.987Z,96080.00
2018-06-19T18:25:05.133Z,96078.00
2018-06-19T18:27:34.294Z,96083.00
2018-06-19T18:30:03.383Z,96078.00
2018-06-19T18:32:32.769Z,96082.00
2018-06-19T18:35:01.950Z,96087.00
2018-06-19T18:37:31.010Z,96084.00
2018-06-19T18:40:00.184Z,96081.00
2018-06-19T18:42:29.559Z,96089.00
2018-06-19T18:44:58.985Z,96085.00
2018-06-19T18:47:28.050Z,96079.00
2018-06-19T18:49:57.240Z,96087.00
2018-06-19T18:52:26.466Z,96089.00
2018-06-19T18:54:55.694Z,96086.00
2018-06-19T18:57:24.850Z,96087.00
2018-06-19T18:59:53.910Z,96085.00
2018-06-19T19:02:23.233Z,96088.00
2018-06-19T19:04:52.318Z,96085.00
2018-06-19T19:07:21.503Z,96085.00
2018-06-19T19:09:55.794Z,96096.00
2018-06-19T19:12:24.992Z,96095.00
2018-06-19T19:14:59.358Z,96098.00
2018-06-19T19:17:33.786Z,96096.00
2018-06-19T19:20:02.922Z,96104.00
2018-06-19T19:22:32.042Z,96110.00
2018-06-19T19:25:01.078Z,96107.00
2018-06-19T19:27:35.474Z,96103.00
2018-06-19T19:30:04.810Z,96102.00
2018-06-19T19:32:33.963Z,96109.00
2018-06-19T19:35:03.269Z,96111.00
2018-06-19T19:37:37.538Z,96109.00
2018-06-19T19:40:06.557Z,96108.00
2018-06-19T19:42:36.774Z,96118.00
2018-06-19T19:45:06.006Z,96116.00
2018-06-19T19:47:40.544Z,96117.00
2018-06-19T19:50:09.659Z,96129.00
2018-06-19T19:52:38.933Z,96113.00
2018-06-19T19:55:08.026Z,96121.00
2018-06-19T19:57:42.370Z,96126.00
2018-06-19T20:00:15.564Z,96125.00
2018-06-19T20:02:44.710Z,96130.00
2018-06-19T20:05:13.850Z,96127.00
2018-06-19T20:07:43.013Z,96121.00
2018-06-19T20:10:12.290Z,96123.00
2018-06-19T20:12:41.496Z,96126.00
2018-06-19T20:15:10.671Z,96125.00
2018-06-19T20:17:39.908Z,96127.00
2018-06-19T20:20:10.142Z,96127.00
2018-06-19T20:22:39.581Z,96122.00
2018-06-19T20:25:08.758Z,96120.00
2018-06-19T20:27:37.854Z,96118.00
2018-06-19T20:30:08.379Z,96118.00
2018-06-19T20:32:37.681Z,96125.00
2018-06-19T20:35:07.033Z,96120.00
2018-06-19T20:37:36.386Z,96132.00
2018-06-19T20:40:05.973Z,96124.00
2018-06-19T20:42:35.077Z,96117.00
2018-06-19T20:45:04.324Z,96122.00
2018-06-19T20:47:33.481Z,96129.00
2018-06-19T20:50:02.671Z,96117.00
2018-06-19T20:52:31.808Z,96109.00
2018-06-19T20:55:00.885Z,96117.00
2018-06-19T20:57:29.853Z,96123.00
2018-06-19T20:59:59.050Z,96121.00
2018-06-19T21:02:28.278Z,96127.00
2018-06-19T21:04:57.201Z,96118.00
2018-06-19T21:07:26.303Z,96126.00
2018-06-19T21:09:55.438Z,96124.00
2018-06-19T21:12:24.623Z,96120.00
2018-06-19T21:14:53.831Z,96125.00
2018-06-19T21:17:23.089Z,96130.00
2018-06-19T21:19:52.282Z,96122.00
2018-06-19T21:22:21.377Z,96121.00
2018-06-19T21:24:50.467Z,96133.00
2018-06-19T21:27:19.614Z,96131.00
2018-06-19T21:29:48.845Z,96133.00
2018-06-19T21:32:17.869Z,96132.00
2018-06-19T21:34:47.047Z,96130.00
2018-06-19T21:37:16.178Z,96131.00
2018-06-19T21:39:45.334Z,96133.00
2018-06-19T21:42:14.522Z,96124.00
2018-06-19T21:44:43.666Z,96121.00
2018-06-19T21:47:12.787Z,96125.00
2018-06-19T21:49:41.884Z,96128.00
2018-06-19T21:52:11.008Z,96123.00
2018-06-19T21:54:40.105Z,96128.00
2018-06-19T21:57:09.251Z,96122.00
2018-06-19T21:59:38.418Z,96123.00
2018-06-19T22:02:07.503Z,96116.00
2018-06-19T22:04:36.674Z,96118.00
2018-06-19T22:07:05.900Z,96122.00
2018-06-19T22:09:35.122Z,96128.00
2018-06-19T22:12:04.226Z,96119.00
2018-06-19T22:14:33.429Z,96123.00
2018-06-19T22:17:02.581Z,96131.00
2018-06-19T22:19:31.782Z,96116.00
2018-06-19T22:22:00.962Z,96119.00
2018-06-19T22:24:29.923Z,96120.00
2018-06-19T22:26:59.259Z,96120.00
2018-06-19T22:29:28.422Z,96112.00
2018-06-19T22:31:57.618Z,96123.00
2018-06-19T22:34:26.707Z,96117.00
2018-06-19T22:36:55.942Z,96123.00
2018-06-19T22:39:25.209Z,96119.00
2018-06-19T22:41:54.298Z,96118.00
2018-06-19T22:44:23.510Z,96115.00
2018-06-19T22:46:52.713Z,96113.00
2018-06-19T22:49:21.869Z,96110.00
2018-06-19T22:51:50.994Z,96109.00
2018-06-19T22:54:20.202Z,96112.00
2018-06-19T22:56:49.388Z,96112.00
2018-06-19T22:59:18.701Z,96115.00
2018-06-19T23:01:47.890Z,96105.00
2018-06-19T23:04:17.017Z,96106.00
2018-06-19T23:06:46.269Z,96105.00
2018-06-19T23:09:15.384Z,96094.00
2018-06-19T23:11:44.531Z,96104.00
2018-06-19T23:14:13.633Z,96102.00
2018-06-19T23:16:42.790Z,96105.00
2018-06-19T23:19:11.848Z,96101.00
2018-06-19T23:21:41.059Z,96108.00
2018-06-19T23:24:10.330Z,96108.00
2018-06-19T23:26:39.481Z,96118.00
2018-06-19T23:29:08.690Z,96101.00
2018-06-19T23:31:37.797Z,96105.00
2018-06-19T23:34:06.940Z,96109.00
2018-06-19T23:36:36.065Z,96103.00
2018-06-19T23:39:07.705Z,96107.00
2018-06-19T23:41:36.898Z,96104.00
2018-06-19T23:44:06.269Z,96102.00
2018-06-19T23:46:35.330Z,96110.00
2018-06-19T23:49:04.442Z,96097.00
2018-06-19T23:51:33.674Z,96098.00
2018-06-19T23:54:02.972Z,96097.00
2018-06-19T23:56:32.161Z,96097.00
2018-06-19T23:59:01.294Z,96088.00
